createdAt,value
2023-05-07T00:00:39.573Z,77.40
2023-05-07T00:01:41.699Z,77.40
2023-05-07T00:02:44.000Z,77.20
2023-05-07T00:03:46.372Z,77.20
2023-05-07T00:04:49.136Z,77.20
2023-05-07T00:05:51.444Z,77.20
2023-05-07T00:06:53.927Z,77.40
2023-05-07T00:07:57.889Z,77.60
2023-05-07T00:09:04.625Z,77.90
2023-05-07T00:10:08.260Z,78.00
2023-05-07T00:11:10.629Z,78.30
2023-05-07T00:12:12.795Z,78.50
2023-05-07T00:13:15.243Z,78.90
2023-05-07T00:14:17.449Z,79.10
2023-05-07T00:15:19.559Z,79.10
2023-05-07T00:16:21.788Z,79.20
2023-05-07T00:17:24.193Z,79.30
2023-05-07T00:18:26.373Z,79.50
2023-05-07T00:19:28.497Z,79.60
2023-05-07T00:20:30.753Z,79.60
2023-05-07T00:21:32.947Z,79.70
2023-05-07T00:22:35.130Z,79.70
2023-05-07T00:23:37.402Z,79.60
2023-05-07T00:24:40.984Z,79.40
2023-05-07T00:25:43.272Z,79.50
2023-05-07T00:26:45.850Z,79.40
2023-05-07T00:27:48.034Z,79.50
2023-05-07T00:28:50.262Z,79.50
2023-05-07T00:29:52.437Z,79.70
2023-05-07T00:30:57.028Z,79.80
2023-05-07T00:31:59.371Z,79.80
2023-05-07T00:33:01.888Z,79.80
2023-05-07T00:34:04.073Z,79.90
2023-05-07T00:35:07.604Z,79.80
2023-05-07T00:36:09.979Z,79.80
2023-05-07T00:37:13.071Z,79.60
2023-05-07T00:38:15.342Z,79.70
2023-05-07T00:39:17.461Z,79.40
2023-05-07T00:40:21.020Z,79.30
2023-05-07T00:41:23.635Z,79.30
2023-05-07T00:42:25.907Z,79.30
2023-05-07T00:43:29.167Z,79.30
2023-05-07T00:44:31.527Z,79.40
2023-05-07T00:45:34.982Z,79.40
2023-05-07T00:46:37.422Z,79.80
2023-05-07T00:47:40.572Z,79.70
2023-05-07T00:48:42.783Z,79.60
2023-05-07T00:49:46.458Z,79.80
2023-05-07T00:50:49.251Z,79.80
2023-05-07T00:51:51.523Z,79.80
2023-05-07T00:52:54.763Z,79.70
2023-05-07T00:53:57.287Z,79.90
2023-05-07T00:55:01.759Z,80.00
2023-05-07T00:56:07.425Z,80.30
2023-05-07T00:57:12.316Z,80.40
2023-05-07T00:58:14.719Z,80.50
2023-05-07T00:59:17.162Z,80.50
2023-05-07T01:00:20.960Z,80.70
2023-05-07T01:01:23.729Z,80.80
2023-05-07T01:02:26.029Z,80.80
2023-05-07T01:03:28.242Z,80.90
2023-05-07T01:04:31.037Z,81.00
2023-05-07T01:05:34.110Z,81.00
2023-05-07T01:06:37.336Z,81.00
2023-05-07T01:07:42.342Z,80.90
2023-05-07T01:08:45.010Z,81.00
2023-05-07T01:09:47.341Z,80.90
2023-05-07T01:10:49.949Z,80.90
2023-05-07T01:11:56.323Z,80.80
2023-05-07T01:13:00.415Z,80.70
2023-05-07T01:14:03.638Z,80.70
2023-05-07T01:15:08.984Z,80.60
2023-05-07T01:16:11.424Z,80.60
2023-05-07T01:17:13.635Z,80.60
2023-05-07T01:18:16.352Z,80.50
2023-05-07T01:19:20.038Z,80.60
2023-05-07T01:20:23.745Z,80.60
2023-05-07T01:21:27.794Z,80.50
2023-05-07T01:22:33.530Z,80.50
2023-05-07T01:23:36.769Z,80.50
2023-05-07T01:24:39.282Z,80.30
2023-05-07T01:25:41.436Z,80.20
2023-05-07T01:26:44.040Z,80.20
2023-05-07T01:27:47.006Z,80.10
2023-05-07T01:28:49.750Z,79.90
2023-05-07T01:29:52.289Z,80.30
2023-05-07T01:30:57.573Z,79.60
2023-05-07T01:33:14.355Z,79.70
2023-05-07T01:34:18.443Z,79.50
2023-05-07T01:35:23.658Z,79.40
2023-05-07T01:36:28.334Z,79.20
2023-05-07T01:37:32.325Z,78.90
2023-05-07T01:38:35.294Z,78.70
2023-05-07T01:39:40.255Z,78.50
2023-05-07T01:40:42.963Z,78.60
2023-05-07T01:41:46.023Z,78.50
2023-05-07T01:42:49.299Z,78.50
2023-05-07T01:43:52.323Z,78.50
2023-05-07T01:44:54.610Z,78.50
2023-05-07T01:45:58.335Z,78.40
2023-05-07T01:47:00.734Z,78.50
2023-05-07T01:48:04.054Z,78.50
2023-05-07T01:49:06.448Z,78.50
2023-05-07T01:50:09.729Z,78.50
2023-05-07T01:51:13.056Z,78.60
2023-05-07T01:52:17.902Z,78.50
2023-05-07T01:53:21.798Z,78.40
2023-05-07T01:54:28.725Z,78.40
2023-05-07T01:55:31.168Z,78.50
2023-05-07T01:56:33.546Z,78.50
2023-05-07T01:57:36.228Z,78.50
2023-05-07T01:58:38.482Z,78.60
2023-05-07T01:59:40.649Z,78.50
2023-05-07T02:00:43.004Z,78.50
2023-05-07T02:01:46.654Z,78.50
2023-05-07T02:02:49.055Z,78.50
2023-05-07T02:03:51.853Z,78.50
2023-05-07T02:04:54.404Z,78.40
2023-05-07T02:05:56.605Z,78.30
2023-05-07T02:06:58.794Z,78.40
2023-05-07T02:08:01.041Z,78.40
2023-05-07T02:09:04.720Z,78.20
2023-05-07T02:10:08.206Z,78.20
2023-05-07T02:11:10.586Z,78.30
2023-05-07T02:12:12.887Z,78.20
2023-05-07T02:13:15.217Z,78.10
2023-05-07T02:14:17.498Z,78.00
2023-05-07T02:15:19.804Z,78.00
2023-05-07T02:16:25.282Z,78.00
2023-05-07T02:17:28.598Z,77.90
2023-05-07T02:18:31.071Z,78.20
2023-05-07T02:19:33.765Z,78.20
2023-05-07T02:20:36.400Z,78.20
2023-05-07T02:21:38.589Z,78.60
2023-05-07T02:22:40.735Z,78.60
2023-05-07T02:23:42.930Z,78.70
2023-05-07T02:24:46.573Z,78.70
2023-05-07T02:25:51.898Z,78.80
2023-05-07T02:26:54.454Z,79.00
2023-05-07T02:27:56.721Z,79.00
2023-05-07T02:28:58.937Z,79.40
2023-05-07T02:30:01.299Z,79.50
2023-05-07T02:31:04.205Z,79.50
2023-05-07T02:32:06.430Z,79.60
2023-05-07T02:33:09.793Z,79.60
2023-05-07T02:34:12.046Z,79.70
2023-05-07T02:35:14.213Z,79.90
2023-05-07T02:36:16.678Z,79.90
2023-05-07T02:37:18.976Z,79.90
2023-05-07T02:38:21.250Z,80.40
2023-05-07T02:39:23.433Z,79.90
2023-05-07T02:40:26.900Z,79.80
2023-05-07T02:41:29.400Z,79.80
2023-05-07T02:42:31.876Z,79.80
2023-05-07T02:43:34.171Z,79.80
2023-05-07T02:44:36.730Z,79.80
2023-05-07T02:45:39.022Z,79.60
2023-05-07T02:46:41.349Z,79.40
2023-05-07T02:47:43.576Z,79.30
2023-05-07T02:48:45.826Z,79.40
2023-05-07T02:49:47.947Z,79.30
2023-05-07T02:50:50.166Z,79.30
2023-05-07T02:51:52.322Z,79.20
2023-05-07T02:52:54.914Z,79.20
2023-05-07T02:53:57.271Z,79.10
2023-05-07T02:54:59.488Z,79.50
2023-05-07T02:56:03.500Z,79.50
2023-05-07T02:57:05.646Z,79.70
2023-05-07T02:58:07.783Z,80.00
2023-05-07T02:59:09.879Z,80.40
2023-05-07T03:00:13.977Z,80.80
2023-05-07T03:01:16.343Z,81.20
2023-05-07T03:02:18.592Z,81.40
2023-05-07T03:03:21.046Z,81.90
2023-05-07T03:04:23.481Z,82.30
2023-05-07T03:05:26.485Z,82.50
2023-05-07T03:06:28.744Z,82.70
2023-05-07T03:07:30.937Z,82.90
2023-05-07T03:08:33.112Z,83.00
2023-05-07T03:09:35.546Z,83.20
2023-05-07T03:10:38.590Z,83.40
2023-05-07T03:11:42.275Z,83.40
2023-05-07T03:12:47.697Z,83.30
2023-05-07T03:13:51.137Z,83.40
2023-05-07T03:14:53.982Z,83.40
2023-05-07T03:15:56.313Z,83.50
2023-05-07T03:16:58.522Z,83.40
2023-05-07T03:18:00.744Z,83.30
2023-05-07T03:19:03.060Z,83.40
2023-05-07T03:20:06.549Z,83.20
2023-05-07T03:21:08.773Z,83.20
2023-05-07T03:22:10.978Z,83.00
2023-05-07T03:23:13.146Z,82.70
2023-05-07T03:24:15.390Z,82.50
2023-05-07T03:25:17.585Z,82.30
2023-05-07T03:26:19.879Z,81.90
2023-05-07T03:27:24.064Z,81.70
2023-05-07T03:28:26.342Z,81.30
2023-05-07T03:29:28.755Z,81.10
2023-05-07T03:30:30.881Z,80.80
2023-05-07T03:31:33.225Z,80.50
2023-05-07T03:32:38.560Z,79.90
2023-05-07T03:33:52.082Z,79.30
2023-05-07T03:34:54.318Z,79.30
2023-05-07T03:35:56.552Z,78.90
2023-05-07T03:36:58.845Z,78.70
2023-05-07T03:38:01.284Z,78.90
2023-05-07T03:39:03.734Z,78.20
2023-05-07T03:40:07.321Z,78.00
2023-05-07T03:41:09.944Z,77.90
2023-05-07T03:42:12.165Z,77.70
2023-05-07T03:43:15.913Z,77.40
2023-05-07T03:44:18.186Z,77.10
2023-05-07T03:45:20.619Z,76.90
2023-05-07T03:46:22.845Z,77.00
2023-05-07T03:47:25.115Z,76.60
2023-05-07T03:48:27.373Z,76.50
2023-05-07T03:49:29.602Z,76.40
2023-05-07T03:50:31.833Z,76.20
2023-05-07T03:51:34.034Z,76.20
2023-05-07T03:52:36.180Z,76.10
2023-05-07T03:53:38.384Z,76.00
2023-05-07T03:54:40.659Z,75.70
2023-05-07T03:55:42.806Z,75.50
2023-05-07T03:56:45.051Z,75.10
2023-05-07T03:57:47.217Z,74.90
2023-05-07T03:58:50.786Z,74.90
2023-05-07T03:59:52.978Z,75.40
2023-05-07T04:00:55.451Z,74.80
2023-05-07T04:01:57.816Z,74.60
2023-05-07T04:03:00.108Z,74.40
2023-05-07T04:04:02.558Z,74.30
2023-05-07T04:05:05.381Z,74.10
2023-05-07T04:06:07.738Z,74.00
2023-05-07T04:07:09.935Z,73.80
2023-05-07T04:08:12.246Z,73.70
2023-05-07T04:09:14.504Z,73.60
2023-05-07T04:10:16.985Z,73.60
2023-05-07T04:11:19.487Z,73.70
2023-05-07T04:12:21.744Z,73.40
2023-05-07T04:13:24.050Z,73.90
2023-05-07T04:14:27.662Z,73.20
2023-05-07T04:15:29.921Z,73.20
2023-05-07T04:16:32.104Z,73.20
2023-05-07T04:17:34.402Z,73.30
2023-05-07T04:18:36.587Z,73.10
2023-05-07T04:19:38.876Z,73.20
2023-05-07T04:20:42.189Z,73.00
2023-05-07T04:21:44.677Z,73.20
2023-05-07T04:22:46.861Z,73.10
2023-05-07T04:23:49.728Z,72.80
2023-05-07T04:24:52.837Z,72.70
2023-05-07T04:25:55.542Z,72.50
2023-05-07T04:26:59.422Z,72.40
2023-05-07T04:28:01.748Z,72.40
2023-05-07T04:29:04.816Z,73.10
2023-05-07T04:30:09.930Z,72.50
2023-05-07T04:31:12.346Z,72.70
2023-05-07T04:32:14.789Z,72.70
2023-05-07T04:33:18.100Z,72.60
2023-05-07T04:34:20.456Z,72.40
2023-05-07T04:35:23.029Z,72.00
2023-05-07T04:36:28.932Z,71.30
2023-05-07T04:37:33.135Z,70.70
2023-05-07T04:38:35.442Z,70.10
2023-05-07T04:39:37.677Z,69.50
2023-05-07T04:40:40.167Z,69.10
2023-05-07T04:41:42.495Z,68.60
2023-05-07T04:42:44.756Z,68.10
2023-05-07T04:43:47.215Z,67.90
2023-05-07T04:44:53.513Z,67.60
2023-05-07T04:45:58.763Z,67.30
2023-05-07T04:47:01.092Z,66.70
2023-05-07T04:48:03.424Z,66.60
2023-05-07T04:49:06.730Z,66.30
2023-05-07T04:50:10.081Z,66.10
2023-05-07T04:51:12.588Z,66.00
2023-05-07T04:52:14.781Z,65.80
2023-05-07T04:53:17.419Z,65.60
2023-05-07T04:54:19.605Z,65.30
2023-05-07T04:55:22.021Z,65.10
2023-05-07T04:56:24.376Z,64.90
2023-05-07T04:57:27.535Z,64.60
2023-05-07T04:58:32.773Z,64.30
2023-05-07T04:59:35.651Z,64.30
2023-05-07T05:00:40.367Z,64.00
2023-05-07T05:01:44.086Z,63.70
2023-05-07T05:02:47.212Z,63.80
2023-05-07T05:03:49.468Z,63.80
2023-05-07T05:04:51.672Z,63.70
2023-05-07T05:05:54.245Z,63.60
2023-05-07T05:06:56.421Z,63.60
2023-05-07T05:07:58.746Z,63.40
2023-05-07T05:09:01.084Z,63.10
2023-05-07T05:10:06.870Z,62.80
2023-05-07T05:11:09.062Z,62.50
2023-05-07T05:12:11.679Z,62.10
2023-05-07T05:13:14.037Z,61.60
2023-05-07T05:14:16.320Z,61.60
2023-05-07T05:15:20.267Z,61.30
2023-05-07T05:16:22.480Z,61.30
2023-05-07T05:17:26.099Z,60.90
2023-05-07T05:18:28.260Z,60.70
2023-05-07T05:19:30.379Z,60.50
2023-05-07T05:20:32.533Z,60.40
2023-05-07T05:21:34.658Z,60.40
2023-05-07T05:22:36.752Z,60.30
2023-05-07T05:23:39.093Z,60.00
2023-05-07T05:24:41.237Z,59.90
2023-05-07T05:25:43.664Z,59.80
2023-05-07T05:26:45.770Z,59.60
2023-05-07T05:27:47.855Z,59.50
2023-05-07T05:28:50.491Z,59.30
2023-05-07T05:29:52.612Z,59.00
2023-05-07T05:30:55.154Z,58.90
2023-05-07T05:31:58.493Z,58.90
2023-05-07T05:33:02.235Z,58.90
2023-05-07T05:34:04.866Z,58.90
2023-05-07T05:35:07.787Z,59.00
2023-05-07T05:36:11.740Z,59.10
2023-05-07T05:37:13.987Z,59.00
2023-05-07T05:38:16.141Z,58.90
2023-05-07T05:39:18.564Z,58.70
2023-05-07T05:40:20.647Z,58.40
2023-05-07T05:41:22.995Z,58.20
2023-05-07T05:42:25.489Z,58.10
2023-05-07T05:43:27.652Z,57.90
2023-05-07T05:44:29.765Z,57.60
2023-05-07T05:45:32.006Z,57.50
2023-05-07T05:46:35.722Z,57.30
2023-05-07T05:47:40.277Z,57.10
2023-05-07T05:48:44.010Z,57.00
2023-05-07T05:49:46.312Z,56.80
2023-05-07T05:50:48.418Z,56.40
2023-05-07T05:51:50.637Z,56.20
2023-05-07T05:52:52.867Z,56.20
2023-05-07T05:53:55.383Z,55.90
2023-05-07T05:54:57.707Z,55.60
2023-05-07T05:56:00.053Z,55.60
2023-05-07T05:57:05.126Z,55.70
2023-05-07T05:58:09.940Z,55.70
2023-05-07T05:59:12.344Z,55.50
2023-05-07T06:00:15.111Z,55.30
2023-05-07T06:01:18.162Z,55.10
2023-05-07T06:02:20.315Z,55.00
2023-05-07T06:03:22.480Z,54.80
2023-05-07T06:04:26.074Z,54.70
2023-05-07T06:05:28.400Z,54.60
2023-05-07T06:06:30.774Z,54.40
2023-05-07T06:07:32.987Z,54.30
2023-05-07T06:08:35.143Z,54.30
2023-05-07T06:09:37.422Z,54.10
2023-05-07T06:10:39.943Z,53.80
2023-05-07T06:11:42.190Z,53.50
2023-05-07T06:12:44.946Z,53.30
2023-05-07T06:13:47.180Z,53.20
2023-05-07T06:14:49.376Z,53.10
2023-05-07T06:15:54.592Z,52.90
2023-05-07T06:16:57.075Z,52.70
2023-05-07T06:17:59.304Z,52.70
2023-05-07T06:19:01.650Z,52.80
2023-05-07T06:20:06.968Z,52.80
2023-05-07T06:21:09.458Z,53.00
2023-05-07T06:22:12.634Z,52.70
2023-05-07T06:23:17.794Z,52.80
2023-05-07T06:24:20.613Z,52.70
2023-05-07T06:25:22.850Z,52.50
2023-05-07T06:26:29.412Z,52.50
2023-05-07T06:27:31.630Z,52.20
2023-05-07T06:28:38.770Z,52.10
2023-05-07T06:29:43.941Z,52.10
2023-05-07T06:30:46.154Z,52.30
2023-05-07T06:31:48.404Z,51.80
2023-05-07T06:32:50.741Z,51.10
2023-05-07T06:33:52.904Z,50.60
2023-05-07T06:34:55.029Z,50.40
2023-05-07T06:35:58.702Z,50.30
2023-05-07T06:37:00.884Z,50.30
2023-05-07T06:38:03.025Z,50.30
2023-05-07T06:39:05.139Z,50.00
2023-05-07T06:40:08.755Z,49.50
2023-05-07T06:41:11.308Z,49.00
2023-05-07T06:42:13.508Z,48.50
2023-05-07T06:43:15.972Z,48.10
2023-05-07T06:44:18.132Z,47.90
2023-05-07T06:45:20.992Z,47.90
2023-05-07T06:46:23.480Z,47.90
2023-05-07T06:47:25.770Z,48.10
2023-05-07T06:48:27.949Z,47.80
2023-05-07T06:49:30.104Z,47.70
2023-05-07T06:50:32.241Z,47.40
2023-05-07T06:51:35.986Z,47.20
2023-05-07T06:52:38.069Z,46.80
2023-05-07T06:53:40.298Z,47.10
2023-05-07T06:54:42.414Z,46.80
2023-05-07T06:55:44.497Z,46.20
2023-05-07T06:56:46.785Z,46.00
2023-05-07T06:57:49.040Z,45.80
2023-05-07T06:58:51.193Z,45.80
2023-05-07T06:59:53.357Z,45.70
2023-05-07T07:00:55.600Z,45.60
2023-05-07T07:01:57.902Z,45.50
2023-05-07T07:03:01.620Z,45.90
2023-05-07T07:04:03.977Z,45.50
2023-05-07T07:05:07.278Z,45.50
2023-05-07T07:06:09.716Z,46.10
2023-05-07T07:07:13.204Z,46.20
2023-05-07T07:08:15.730Z,45.80
2023-05-07T07:09:17.866Z,45.60
2023-05-07T07:10:20.545Z,45.40
2023-05-07T07:11:22.683Z,45.00
2023-05-07T07:12:26.998Z,44.70
2023-05-07T07:13:29.153Z,44.60
2023-05-07T07:14:31.321Z,44.40
2023-05-07T07:15:33.459Z,44.30
2023-05-07T07:16:36.034Z,45.20
2023-05-07T07:17:38.353Z,45.60
2023-05-07T07:18:40.845Z,45.10
2023-05-07T07:19:42.943Z,44.40
2023-05-07T07:20:45.663Z,43.80
2023-05-07T07:21:47.886Z,43.60
2023-05-07T07:22:51.487Z,43.30
2023-05-07T07:23:53.605Z,43.40
2023-05-07T07:24:55.750Z,43.60
2023-05-07T07:25:57.961Z,43.60
2023-05-07T07:27:00.140Z,43.90
2023-05-07T07:28:02.356Z,43.80
2023-05-07T07:29:04.480Z,43.60
2023-05-07T07:30:07.863Z,43.30
2023-05-07T07:31:10.016Z,43.00
2023-05-07T07:32:12.448Z,42.90
2023-05-07T07:33:15.150Z,43.40
2023-05-07T07:34:17.293Z,43.60
2023-05-07T07:35:19.754Z,43.50
2023-05-07T07:36:23.359Z,43.40
2023-05-07T07:37:26.572Z,42.90
2023-05-07T07:38:30.338Z,42.60
2023-05-07T07:39:33.119Z,42.30
2023-05-07T07:40:37.450Z,42.20
2023-05-07T07:41:39.738Z,42.00
2023-05-07T07:42:41.861Z,42.00
2023-05-07T07:43:43.984Z,42.00
2023-05-07T07:44:46.303Z,42.10
2023-05-07T07:45:48.428Z,42.00
2023-05-07T07:46:51.797Z,41.90
2023-05-07T07:47:54.104Z,42.30
2023-05-07T07:48:56.339Z,41.90
2023-05-07T07:49:58.477Z,41.60
2023-05-07T07:51:00.797Z,41.30
2023-05-07T07:52:03.079Z,40.70
2023-05-07T07:53:05.308Z,40.80
2023-05-07T07:54:08.895Z,41.00
2023-05-07T07:55:11.598Z,41.20
2023-05-07T07:56:13.785Z,41.10
2023-05-07T07:57:17.597Z,41.30
2023-05-07T07:58:19.862Z,41.30
2023-05-07T07:59:21.967Z,41.50
2023-05-07T08:00:24.418Z,41.50
2023-05-07T08:01:27.027Z,41.50
2023-05-07T08:02:29.338Z,41.40
2023-05-07T08:03:33.594Z,41.30
2023-05-07T08:04:36.581Z,40.90
2023-05-07T08:05:39.541Z,40.40
2023-05-07T08:06:41.684Z,40.30
2023-05-07T08:07:43.827Z,40.30
2023-05-07T08:08:45.977Z,40.10
2023-05-07T08:09:49.923Z,40.00
2023-05-07T08:10:52.198Z,40.00
2023-05-07T08:11:54.478Z,40.20
2023-05-07T08:12:56.720Z,40.10
2023-05-07T08:13:58.939Z,40.10
2023-05-07T08:15:01.119Z,40.10
2023-05-07T08:16:03.499Z,40.10
2023-05-07T08:17:05.882Z,40.30
2023-05-07T08:18:08.217Z,40.60
2023-05-07T08:19:11.128Z,39.90
2023-05-07T08:20:13.559Z,39.70
2023-05-07T08:21:16.263Z,39.70
2023-05-07T08:22:19.571Z,40.00
2023-05-07T08:23:21.828Z,40.00
2023-05-07T08:24:24.066Z,39.90
2023-05-07T08:25:27.585Z,40.10
2023-05-07T08:26:29.827Z,40.00
2023-05-07T08:27:31.974Z,39.60
2023-05-07T08:28:34.180Z,39.50
2023-05-07T08:29:36.720Z,39.70
2023-05-07T08:30:38.970Z,39.80
2023-05-07T08:31:41.272Z,39.80
2023-05-07T08:32:43.469Z,39.80
2023-05-07T08:33:45.754Z,39.70
2023-05-07T08:34:48.410Z,39.60
2023-05-07T08:35:50.538Z,39.90
2023-05-07T08:36:52.646Z,39.90
2023-05-07T08:37:57.047Z,39.70
2023-05-07T08:38:59.379Z,39.40
2023-05-07T08:40:01.586Z,39.40
2023-05-07T08:41:05.229Z,39.30
2023-05-07T08:42:10.120Z,39.20
2023-05-07T08:43:14.322Z,39.20
2023-05-07T08:44:22.346Z,38.90
2023-05-07T08:45:25.172Z,39.20
2023-05-07T08:46:31.122Z,39.20
2023-05-07T08:47:40.161Z,39.20
2023-05-07T08:48:42.615Z,39.80
2023-05-07T08:49:45.282Z,39.60
2023-05-07T08:50:47.814Z,39.70
2023-05-07T08:51:50.110Z,39.70
2023-05-07T08:52:52.458Z,40.20
2023-05-07T08:53:54.606Z,40.10
2023-05-07T08:54:57.624Z,39.60
2023-05-07T08:56:00.278Z,39.20
2023-05-07T08:57:04.001Z,39.20
2023-05-07T08:58:06.194Z,39.30
2023-05-07T08:59:08.384Z,39.30
2023-05-07T09:00:12.222Z,39.40
2023-05-07T09:01:15.958Z,39.30
2023-05-07T09:02:19.310Z,39.30
2023-05-07T09:03:21.663Z,39.30
2023-05-07T09:04:24.089Z,39.10
2023-05-07T09:05:26.462Z,38.70
2023-05-07T09:06:28.652Z,38.60
2023-05-07T09:07:31.545Z,38.90
2023-05-07T09:08:35.235Z,39.10
2023-05-07T09:09:38.186Z,39.10
2023-05-07T09:10:40.310Z,38.90
2023-05-07T09:11:57.823Z,38.90
2023-05-07T09:13:01.433Z,38.80
2023-05-07T09:14:03.886Z,38.80
2023-05-07T09:15:09.170Z,39.00
2023-05-07T09:16:13.169Z,39.20
2023-05-07T09:17:16.701Z,39.20
2023-05-07T09:18:18.800Z,38.90
2023-05-07T09:19:24.542Z,38.70
2023-05-07T09:20:26.847Z,38.90
2023-05-07T09:21:29.039Z,38.80
2023-05-07T09:22:33.012Z,38.90
2023-05-07T09:23:35.266Z,39.20
2023-05-07T09:24:39.034Z,39.50
2023-05-07T09:25:41.331Z,39.30
2023-05-07T09:26:43.846Z,38.80
2023-05-07T09:27:46.180Z,38.60
2023-05-07T09:28:49.828Z,38.50
2023-05-07T09:29:51.986Z,38.00
2023-05-07T09:30:54.134Z,37.60
2023-05-07T09:31:56.586Z,37.90
2023-05-07T09:33:00.461Z,38.00
2023-05-07T09:34:02.620Z,37.80
2023-05-07T09:35:05.451Z,37.80
2023-05-07T09:36:09.763Z,37.80
2023-05-07T09:37:14.841Z,38.10
2023-05-07T09:38:20.703Z,38.10
2023-05-07T09:39:22.988Z,38.80
2023-05-07T09:40:26.564Z,38.80
2023-05-07T09:41:30.962Z,38.30
2023-05-07T09:42:33.118Z,38.20
2023-05-07T09:43:35.990Z,38.50
2023-05-07T09:44:39.781Z,38.70
2023-05-07T09:45:42.565Z,38.60
2023-05-07T09:46:45.998Z,38.70
2023-05-07T09:47:50.855Z,38.80
2023-05-07T09:48:57.486Z,38.60
2023-05-07T09:50:04.152Z,38.60
2023-05-07T09:51:12.794Z,38.60
2023-05-07T09:52:16.118Z,38.10
2023-05-07T09:53:19.582Z,37.80
2023-05-07T09:54:21.795Z,37.40
2023-05-07T09:55:24.224Z,37.20
2023-05-07T09:56:27.658Z,36.90
2023-05-07T09:57:31.118Z,37.00
2023-05-07T09:58:34.601Z,37.30
2023-05-07T09:59:41.542Z,37.80
2023-05-07T10:00:44.235Z,37.60
2023-05-07T10:01:46.822Z,37.30
2023-05-07T10:02:51.019Z,37.50
2023-05-07T10:03:54.917Z,37.60
2023-05-07T10:04:59.134Z,37.90
2023-05-07T10:06:02.850Z,38.30
2023-05-07T10:07:06.615Z,38.00
2023-05-07T10:08:10.986Z,37.60
2023-05-07T10:09:14.865Z,37.70
2023-05-07T10:10:17.205Z,38.10
2023-05-07T10:11:20.406Z,38.30
2023-05-07T10:12:22.941Z,38.70
2023-05-07T10:13:26.268Z,38.80
2023-05-07T10:14:30.548Z,38.00
2023-05-07T10:15:35.602Z,37.20
2023-05-07T10:16:38.936Z,37.10
2023-05-07T10:17:41.625Z,37.10
2023-05-07T10:18:44.743Z,37.10
2023-05-07T10:19:47.518Z,37.10
2023-05-07T10:20:50.983Z,36.90
2023-05-07T10:21:57.975Z,36.30
2023-05-07T10:23:00.516Z,36.20
2023-05-07T10:24:11.464Z,36.50
2023-05-07T10:25:18.881Z,36.30
2023-05-07T10:26:23.107Z,36.30
2023-05-07T10:27:26.026Z,36.40
2023-05-07T10:28:29.676Z,36.60
2023-05-07T10:29:40.150Z,36.40
2023-05-07T10:31:02.181Z,36.10
2023-05-07T10:32:20.717Z,35.70
2023-05-07T10:33:27.466Z,35.70
2023-05-07T10:34:35.132Z,36.00
2023-05-07T10:35:41.700Z,35.80
2023-05-07T10:36:45.799Z,36.00
2023-05-07T10:37:49.207Z,36.30
2023-05-07T10:38:51.711Z,36.00
2023-05-07T10:39:54.048Z,35.60
2023-05-07T10:40:56.435Z,35.40
2023-05-07T10:42:07.975Z,35.00
2023-05-07T10:43:11.127Z,34.80
2023-05-07T10:44:25.712Z,34.90
2023-05-07T10:45:28.426Z,35.50
2023-05-07T10:46:36.526Z,35.00
2023-05-07T10:48:20.951Z,34.80
2023-05-07T10:49:32.213Z,35.20
2023-05-07T10:50:34.451Z,35.00
2023-05-07T10:51:36.928Z,34.60
2023-05-07T10:52:39.044Z,35.20
2023-05-07T10:53:41.265Z,34.90
2023-05-07T10:54:44.919Z,34.70
2023-05-07T10:55:48.721Z,34.20
2023-05-07T10:56:52.116Z,34.30
2023-05-07T10:57:54.240Z,34.40
2023-05-07T10:58:56.744Z,34.50
2023-05-07T10:59:59.499Z,34.50
2023-05-07T11:01:02.734Z,34.10
2023-05-07T11:02:09.309Z,33.30
2023-05-07T11:03:11.768Z,32.70
2023-05-07T11:04:15.739Z,33.10
2023-05-07T11:05:22.142Z,34.50
2023-05-07T11:06:24.330Z,34.70
2023-05-07T11:07:31.044Z,33.90
2023-05-07T11:08:54.074Z,32.90
2023-05-07T11:10:07.172Z,32.60
2023-05-07T11:11:09.392Z,32.40
2023-05-07T11:12:11.593Z,32.70
2023-05-07T11:13:13.762Z,32.50
2023-05-07T11:14:36.096Z,32.30
2023-05-07T11:15:44.270Z,32.70
2023-05-07T11:16:47.071Z,33.50
2023-05-07T11:17:58.631Z,33.80
2023-05-07T11:19:01.427Z,33.80
2023-05-07T11:20:05.745Z,33.50
2023-05-07T11:21:08.281Z,33.30
2023-05-07T11:22:40.677Z,33.10
2023-05-07T11:24:10.333Z,33.10
2023-05-07T11:25:18.151Z,33.90
2023-05-07T11:26:20.917Z,34.20
2023-05-07T11:27:25.624Z,34.20
2023-05-07T11:28:29.189Z,34.70
2023-05-07T11:29:31.832Z,35.50
2023-05-07T11:30:34.073Z,34.90
2023-05-07T11:31:37.109Z,35.20
2023-05-07T11:32:39.749Z,35.20
2023-05-07T11:33:45.598Z,35.20
2023-05-07T11:34:55.543Z,35.00
2023-05-07T11:35:58.309Z,34.90
2023-05-07T11:37:01.964Z,35.20
2023-05-07T11:38:04.153Z,35.50
2023-05-07T11:39:06.816Z,35.50
2023-05-07T11:40:12.198Z,35.60
2023-05-07T11:41:14.850Z,36.00
2023-05-07T11:42:30.077Z,36.40
2023-05-07T11:43:33.408Z,36.10
2023-05-07T11:44:47.237Z,35.70
2023-05-07T11:45:50.600Z,35.50
2023-05-07T11:46:52.989Z,35.70
2023-05-07T11:47:55.667Z,35.60
2023-05-07T11:48:59.683Z,35.90
2023-05-07T11:50:05.681Z,35.80
2023-05-07T11:51:13.258Z,35.40
2023-05-07T11:52:15.884Z,35.40
2023-05-07T11:53:18.276Z,35.40
2023-05-07T11:54:22.406Z,35.50
2023-05-07T11:55:27.020Z,35.40
2023-05-07T11:56:29.427Z,35.60
2023-05-07T11:57:34.120Z,35.80
2023-05-07T11:58:36.430Z,35.50
2023-05-07T11:59:42.037Z,35.50
2023-05-07T12:00:50.405Z,35.20
2023-05-07T12:01:52.724Z,35.40
2023-05-07T12:02:55.229Z,35.10
2023-05-07T12:03:58.956Z,35.20
2023-05-07T12:05:03.635Z,35.50
2023-05-07T12:06:07.882Z,35.50
2023-05-07T12:07:14.443Z,35.50
2023-05-07T12:08:19.897Z,35.50
2023-05-07T12:09:22.446Z,35.50
2023-05-07T12:10:25.953Z,35.40
2023-05-07T12:11:28.113Z,35.50
2023-05-07T12:12:30.685Z,35.20
2023-05-07T12:13:33.006Z,35.30
2023-05-07T12:14:41.067Z,35.80
2023-05-07T12:15:43.503Z,36.10
2023-05-07T12:16:46.489Z,35.50
2023-05-07T12:17:49.815Z,35.40
2023-05-07T12:18:56.298Z,35.20
2023-05-07T12:20:00.209Z,35.00
2023-05-07T12:21:02.941Z,34.90
2023-05-07T12:22:05.860Z,35.00
2023-05-07T12:23:08.439Z,35.20
2023-05-07T12:24:10.965Z,35.50
2023-05-07T12:25:16.241Z,35.60
2023-05-07T12:26:20.254Z,35.60
2023-05-07T12:27:22.437Z,35.60
2023-05-07T12:28:25.039Z,35.70
2023-05-07T12:29:27.392Z,35.50
2023-05-07T12:30:30.667Z,35.10
2023-05-07T12:31:33.063Z,35.60
2023-05-07T12:32:38.078Z,35.60
2023-05-07T12:33:41.521Z,35.60
2023-05-07T12:34:45.347Z,35.50
2023-05-07T12:35:56.502Z,34.80
2023-05-07T12:37:02.680Z,35.20
2023-05-07T12:38:09.765Z,35.40
2023-05-07T12:39:11.966Z,35.50
2023-05-07T12:40:14.919Z,35.70
2023-05-07T12:41:17.475Z,35.70
2023-05-07T12:42:27.174Z,35.80
2023-05-07T12:43:30.251Z,36.00
2023-05-07T12:44:34.225Z,36.40
2023-05-07T12:45:40.299Z,36.40
2023-05-07T12:46:43.298Z,36.40
2023-05-07T12:47:46.417Z,36.00
2023-05-07T12:48:50.449Z,36.00
2023-05-07T12:49:52.662Z,36.20
2023-05-07T12:50:57.327Z,36.30
2023-05-07T12:52:00.253Z,36.10
2023-05-07T12:53:06.986Z,36.70
2023-05-07T12:54:09.131Z,36.40
2023-05-07T12:55:15.795Z,36.80
2023-05-07T12:56:17.995Z,36.70
2023-05-07T12:57:21.858Z,36.60
2023-05-07T12:58:27.865Z,36.70
2023-05-07T12:59:33.953Z,36.30
2023-05-07T13:00:37.262Z,36.50
2023-05-07T13:01:39.503Z,36.50
2023-05-07T13:02:45.659Z,36.20
2023-05-07T13:03:51.485Z,36.00
2023-05-07T13:04:54.181Z,36.20
2023-05-07T13:05:59.551Z,36.30
2023-05-07T13:07:02.168Z,36.90
2023-05-07T13:08:04.461Z,36.80
2023-05-07T13:09:06.846Z,36.60
2023-05-07T13:10:10.199Z,36.50
2023-05-07T13:11:14.213Z,36.50
2023-05-07T13:12:16.444Z,36.10
2023-05-07T13:13:18.666Z,36.10
2023-05-07T13:14:21.966Z,36.10
2023-05-07T13:15:24.757Z,36.20
2023-05-07T13:16:26.947Z,36.20
2023-05-07T13:17:29.227Z,36.10
2023-05-07T13:18:32.683Z,36.20
2023-05-07T13:19:34.935Z,36.20
2023-05-07T13:20:37.096Z,36.20
2023-05-07T13:21:40.624Z,36.30
2023-05-07T13:22:42.870Z,36.30
2023-05-07T13:23:45.049Z,36.30
2023-05-07T13:24:47.409Z,36.20
2023-05-07T13:25:50.454Z,36.20
2023-05-07T13:26:52.772Z,36.00
2023-05-07T13:28:06.710Z,36.00
2023-05-07T13:29:12.308Z,36.30
2023-05-07T13:30:14.889Z,36.00
2023-05-07T13:31:17.179Z,35.50
2023-05-07T13:32:19.418Z,35.00
2023-05-07T13:33:21.641Z,34.60
2023-05-07T13:34:23.958Z,34.60
2023-05-07T13:35:28.756Z,34.80
2023-05-07T13:36:34.088Z,34.80
2023-05-07T13:37:37.741Z,34.70
2023-05-07T13:38:40.660Z,34.80